createdAt,value
2022-09-14T00:02:46.942Z,3.13
2022-09-14T00:05:49.407Z,2.83
2022-09-14T00:08:53.465Z,2.55
2022-09-14T00:11:55.857Z,3.22
2022-09-14T00:14:57.936Z,2.58
2022-09-14T00:18:00.032Z,2.70
2022-09-14T00:21:07.322Z,3.10
2022-09-14T00:24:11.280Z,3.30
2022-09-14T00:27:13.753Z,2.90
2022-09-14T00:30:16.079Z,3.30
2022-09-14T00:33:18.343Z,3.20
2022-09-14T00:36:26.388Z,3.22
2022-09-14T00:39:28.584Z,2.83
2022-09-14T00:42:30.854Z,2.45
2022-09-14T00:45:33.326Z,3.08
2022-09-14T00:48:36.152Z,3.05
2022-09-14T00:51:45.874Z,2.65
2022-09-14T00:54:52.111Z,3.40
2022-09-14T00:57:54.741Z,3.00
2022-09-14T01:00:57.758Z,2.60
2022-09-14T01:03:59.991Z,2.78
2022-09-14T01:07:11.327Z,3.30
2022-09-14T01:10:19.279Z,3.03
2022-09-14T01:13:33.549Z,3.13
2022-09-14T01:16:59.039Z,3.00
2022-09-14T01:20:27.211Z,2.97
2022-09-14T01:23:54.556Z,3.60
2022-09-14T01:26:59.494Z,2.40
2022-09-14T01:30:09.784Z,3.05
2022-09-14T01:33:38.308Z,3.25
2022-09-14T01:36:45.765Z,3.43
2022-09-14T01:39:55.086Z,2.88
2022-09-14T01:43:06.296Z,3.05
2022-09-14T01:46:13.663Z,3.40
2022-09-14T01:49:24.486Z,3.63
2022-09-14T01:52:34.408Z,4.13
2022-09-14T01:55:53.141Z,3.78
2022-09-14T01:59:16.510Z,3.20
2022-09-14T02:02:39.749Z,3.08
2022-09-14T02:05:54.911Z,2.83
2022-09-14T02:08:57.066Z,3.00
2022-09-14T02:12:00.931Z,3.38
2022-09-14T02:15:04.643Z,3.03
2022-09-14T02:18:06.916Z,2.90
2022-09-14T02:21:15.806Z,3.03
2022-09-14T02:24:18.381Z,2.72
2022-09-14T02:27:21.211Z,3.10
2022-09-14T02:30:23.645Z,3.40
2022-09-14T02:33:30.421Z,3.63
2022-09-14T02:36:40.407Z,3.70
2022-09-14T02:40:08.688Z,2.97
2022-09-14T02:43:18.985Z,2.50
2022-09-14T02:46:38.656Z,2.63
2022-09-14T02:49:45.485Z,2.95
2022-09-14T02:52:58.898Z,2.85
2022-09-14T02:56:05.035Z,2.92
2022-09-14T02:59:06.980Z,2.92
2022-09-14T03:02:09.152Z,3.17
2022-09-14T03:05:11.142Z,3.28
2022-09-14T03:08:13.209Z,4.20
2022-09-14T03:11:15.574Z,3.13
2022-09-14T03:14:17.728Z,3.88
2022-09-14T03:17:19.713Z,3.95
2022-09-14T03:20:24.813Z,3.53
2022-09-14T03:23:26.765Z,3.65
2022-09-14T03:26:31.569Z,2.97
2022-09-14T03:29:33.606Z,4.40
2022-09-14T03:32:35.860Z,4.07
2022-09-14T03:35:38.182Z,3.80
2022-09-14T03:38:44.174Z,5.35
2022-09-14T03:41:46.176Z,5.22
2022-09-14T03:44:48.225Z,3.85
2022-09-14T03:47:50.849Z,4.45
2022-09-14T03:50:52.734Z,3.60
2022-09-14T03:53:54.749Z,4.47
2022-09-14T03:56:56.840Z,3.70
2022-09-14T03:59:59.149Z,4.20
2022-09-14T04:03:01.224Z,3.90
2022-09-14T04:06:07.451Z,4.25
2022-09-14T04:09:09.578Z,3.92
2022-09-14T04:12:11.745Z,4.38
2022-09-14T04:15:13.818Z,4.03
2022-09-14T04:18:15.889Z,4.00
2022-09-14T04:21:21.138Z,5.72
2022-09-14T04:24:25.384Z,4.82
2022-09-14T04:27:31.573Z,4.63
2022-09-14T04:30:33.727Z,3.72
2022-09-14T04:33:37.211Z,4.50
2022-09-14T04:36:39.379Z,3.90
2022-09-14T04:39:42.625Z,3.28
2022-09-14T04:42:44.810Z,4.00
2022-09-14T04:45:47.103Z,2.83
2022-09-14T04:48:50.520Z,3.22
2022-09-14T04:51:52.623Z,3.55
2022-09-14T04:54:54.622Z,4.43
2022-09-14T04:57:56.512Z,4.07
2022-09-14T05:01:03.537Z,4.18
2022-09-14T05:04:07.174Z,3.88
2022-09-14T05:07:09.200Z,3.08
2022-09-14T05:10:11.697Z,3.38
2022-09-14T05:13:15.786Z,3.03
2022-09-14T05:16:23.382Z,4.13
2022-09-14T05:19:25.413Z,3.03
2022-09-14T05:22:27.370Z,3.30
2022-09-14T05:25:29.781Z,3.00
2022-09-14T05:28:32.882Z,3.28
2022-09-14T05:31:35.009Z,3.35
2022-09-14T05:34:37.231Z,3.03
2022-09-14T05:37:39.515Z,3.20
2022-09-14T05:40:42.281Z,1.80
2022-09-14T05:43:44.857Z,2.80
2022-09-14T05:46:46.829Z,2.97
2022-09-14T05:49:48.818Z,3.30
2022-09-14T05:52:51.849Z,2.40
2022-09-14T05:56:05.887Z,3.13
2022-09-14T05:59:08.047Z,2.20
2022-09-14T06:02:12.745Z,3.05
2022-09-14T06:05:18.383Z,2.67
2022-09-14T06:08:20.785Z,3.53
2022-09-14T06:11:26.170Z,2.60
2022-09-14T06:14:28.266Z,2.67
2022-09-14T06:17:31.356Z,2.65
2022-09-14T06:20:33.369Z,3.03
2022-09-14T06:23:36.226Z,2.45
2022-09-14T06:26:39.354Z,2.80
2022-09-14T06:29:41.720Z,1.90
2022-09-14T06:32:43.848Z,2.30
2022-09-14T06:36:00.200Z,2.50
2022-09-14T06:39:02.170Z,2.80
2022-09-14T06:42:04.390Z,1.75
2022-09-14T06:45:06.997Z,2.50
2022-09-14T06:48:08.958Z,2.45
2022-09-14T06:51:16.923Z,2.20
2022-09-14T06:54:19.030Z,2.67
2022-09-14T06:57:21.032Z,2.15
2022-09-14T07:00:22.956Z,2.15
2022-09-14T07:03:24.993Z,2.75
2022-09-14T07:06:29.941Z,2.65
2022-09-14T07:09:32.219Z,2.20
2022-09-14T07:12:34.330Z,2.38
2022-09-14T07:15:36.289Z,1.42
2022-09-14T07:18:39.157Z,1.40
2022-09-14T07:21:42.314Z,1.85
2022-09-14T07:24:44.205Z,2.30
2022-09-14T07:27:46.295Z,2.58
2022-09-14T07:30:48.726Z,2.00
2022-09-14T07:33:57.972Z,1.77
2022-09-14T07:36:59.950Z,1.73
2022-09-14T07:40:02.327Z,1.90
2022-09-14T07:43:04.412Z,2.50
2022-09-14T07:46:07.088Z,2.33
2022-09-14T07:49:10.528Z,1.50
2022-09-14T07:52:12.699Z,1.90
2022-09-14T07:55:14.899Z,2.08
2022-09-14T07:58:16.862Z,2.25
2022-09-14T08:01:19.266Z,2.22
2022-09-14T08:04:21.471Z,1.27
2022-09-14T08:07:23.365Z,1.88
2022-09-14T08:10:26.305Z,1.85
2022-09-14T08:13:28.141Z,2.25
2022-09-14T08:16:32.097Z,2.65
2022-09-14T08:19:34.175Z,2.05
2022-09-14T08:22:36.088Z,2.88
2022-09-14T08:25:38.076Z,1.73
2022-09-14T08:28:40.950Z,1.75
2022-09-14T08:31:45.789Z,2.03
2022-09-14T08:34:49.346Z,1.83
2022-09-14T08:37:51.419Z,2.08
2022-09-14T08:40:53.871Z,1.85
2022-09-14T08:44:05.999Z,2.08
2022-09-14T08:47:16.505Z,1.88
2022-09-14T08:50:22.145Z,2.67
2022-09-14T08:53:25.802Z,1.95
2022-09-14T08:56:38.448Z,1.77
2022-09-14T08:59:52.344Z,1.80
2022-09-14T09:03:19.126Z,1.95
2022-09-14T09:06:45.999Z,1.52
2022-09-14T09:09:52.437Z,1.70
2022-09-14T09:12:58.621Z,1.65
2022-09-14T09:16:04.874Z,1.45
2022-09-14T09:19:16.485Z,1.40
2022-09-14T09:22:22.484Z,2.22
2022-09-14T09:25:32.110Z,1.70
2022-09-14T09:28:34.611Z,1.67
2022-09-14T09:31:40.260Z,1.95
2022-09-14T09:35:19.578Z,1.85
2022-09-14T09:38:42.961Z,1.33
2022-09-14T09:41:47.252Z,1.38
2022-09-14T09:45:01.786Z,1.90
2022-09-14T09:48:10.760Z,1.98
2022-09-14T09:51:14.239Z,1.50
2022-09-14T09:54:16.193Z,1.70
2022-09-14T09:57:38.533Z,2.72
2022-09-14T10:00:41.134Z,1.80
2022-09-14T10:03:43.268Z,1.85
2022-09-14T10:06:50.974Z,1.83
2022-09-14T10:10:04.371Z,1.38
2022-09-14T10:13:23.232Z,1.45
2022-09-14T10:16:30.800Z,2.50
2022-09-14T10:19:33.754Z,1.50
2022-09-14T10:22:43.964Z,1.52
2022-09-14T10:25:53.996Z,1.40
2022-09-14T10:29:28.942Z,2.13
2022-09-14T10:32:34.117Z,1.40
2022-09-14T10:35:59.853Z,2.05
2022-09-14T10:39:32.985Z,1.85
2022-09-14T10:42:43.239Z,1.52
2022-09-14T10:45:52.996Z,1.35
2022-09-14T10:48:57.888Z,1.40
2022-09-14T10:52:30.272Z,1.50
2022-09-14T10:56:02.008Z,1.10
2022-09-14T10:59:24.242Z,1.35
2022-09-14T11:02:59.331Z,1.48
2022-09-14T11:06:21.668Z,1.70
2022-09-14T11:09:30.523Z,1.88
2022-09-14T11:13:06.024Z,1.75
2022-09-14T11:16:08.213Z,1.85
2022-09-14T11:19:22.615Z,1.77
2022-09-14T11:22:46.828Z,2.22
2022-09-14T11:26:13.719Z,1.75
2022-09-14T11:29:29.044Z,1.90
2022-09-14T11:32:53.320Z,1.83
2022-09-14T11:36:04.254Z,1.80
2022-09-14T11:39:31.072Z,2.55
2022-09-14T11:42:40.747Z,1.58
2022-09-14T11:45:50.511Z,1.30
2022-09-14T11:49:16.295Z,1.40
2022-09-14T11:52:21.830Z,1.27
2022-09-14T11:55:23.959Z,2.03
2022-09-14T11:58:31.565Z,1.60
2022-09-14T12:01:39.302Z,1.20
2022-09-14T12:05:10.766Z,1.23
2022-09-14T12:08:36.393Z,1.63
2022-09-14T12:11:38.773Z,1.60
2022-09-14T12:14:44.201Z,1.65
2022-09-14T12:17:46.249Z,1.15
2022-09-14T12:20:59.495Z,1.15
2022-09-14T12:24:14.925Z,1.55
2022-09-14T12:27:22.572Z,2.05
2022-09-14T12:30:41.214Z,1.20
2022-09-14T12:33:45.333Z,1.23
2022-09-14T12:36:47.595Z,1.80
2022-09-14T12:40:20.790Z,1.30
2022-09-14T12:43:35.126Z,1.15
2022-09-14T12:46:38.793Z,1.75
2022-09-14T12:49:41.398Z,1.98
2022-09-14T12:52:46.407Z,1.77
2022-09-14T12:56:04.259Z,1.33
2022-09-14T12:59:33.802Z,0.95
2022-09-14T13:03:00.172Z,1.30
2022-09-14T13:06:03.126Z,1.38
2022-09-14T13:09:09.495Z,1.85
2022-09-14T13:12:14.318Z,1.20
2022-09-14T13:15:24.644Z,1.50
2022-09-14T13:18:31.642Z,1.58
2022-09-14T13:21:33.644Z,1.55
2022-09-14T13:24:38.880Z,1.38
2022-09-14T13:27:41.200Z,1.33
2022-09-14T13:30:52.746Z,1.10
2022-09-14T13:33:56.195Z,1.77
2022-09-14T13:37:00.038Z,1.75
2022-09-14T13:40:02.353Z,1.95
2022-09-14T13:43:04.859Z,1.40
2022-09-14T13:46:11.806Z,1.20
2022-09-14T13:49:14.048Z,1.35
2022-09-14T13:52:22.252Z,1.38
2022-09-14T13:55:32.216Z,1.27
2022-09-14T13:58:35.782Z,1.00
2022-09-14T14:01:41.720Z,1.35
2022-09-14T14:04:48.488Z,1.30
2022-09-14T14:07:52.058Z,1.67
2022-09-14T14:10:55.808Z,1.58
2022-09-14T14:14:15.933Z,1.63
2022-09-14T14:17:23.317Z,1.58
2022-09-14T14:20:36.633Z,1.17
2022-09-14T14:23:51.266Z,1.92
2022-09-14T14:27:00.643Z,1.38
2022-09-14T14:30:13.482Z,1.40
2022-09-14T14:33:19.051Z,1.42
2022-09-14T14:36:21.223Z,1.55
2022-09-14T14:39:25.352Z,1.10
2022-09-14T14:42:27.401Z,0.98
2022-09-14T14:45:35.922Z,7.47
2022-09-14T14:48:39.138Z,6.78
2022-09-14T14:51:41.728Z,2.75
2022-09-14T14:54:43.750Z,1.98
2022-09-14T14:57:46.327Z,1.77
2022-09-14T15:00:49.374Z,1.58
2022-09-14T15:03:51.325Z,1.75
2022-09-14T15:06:53.886Z,1.55
2022-09-14T15:09:58.287Z,1.20
2022-09-14T15:13:00.518Z,1.80
2022-09-14T15:16:02.774Z,1.48
2022-09-14T15:19:05.271Z,1.35
2022-09-14T15:22:07.579Z,1.33
2022-09-14T15:25:11.864Z,1.10
2022-09-14T15:28:13.868Z,1.60
2022-09-14T15:31:15.887Z,1.48
2022-09-14T15:34:17.897Z,1.98
2022-09-14T15:37:20.551Z,1.02
2022-09-14T15:40:22.606Z,2.30
2022-09-14T15:43:24.645Z,1.60
2022-09-14T15:46:26.722Z,1.42
2022-09-14T15:49:28.893Z,1.63
2022-09-14T15:52:31.219Z,2.05
2022-09-14T15:55:33.297Z,1.98
2022-09-14T15:58:35.325Z,2.65
2022-09-14T16:01:37.341Z,2.20
2022-09-14T16:04:39.826Z,1.70
2022-09-14T16:07:41.834Z,1.25
2022-09-14T16:10:43.944Z,1.95
2022-09-14T16:13:46.388Z,2.00
2022-09-14T16:16:48.518Z,1.75
2022-09-14T16:19:50.586Z,1.77
2022-09-14T16:22:53.047Z,5.32
2022-09-14T16:25:55.019Z,3.17
2022-09-14T16:28:57.219Z,5.10
2022-09-14T16:31:59.174Z,2.88
2022-09-14T16:35:05.868Z,4.65
2022-09-14T16:38:10.094Z,4.28
2022-09-14T16:41:13.846Z,3.13
2022-09-14T16:44:18.377Z,2.33
2022-09-14T16:47:20.448Z,2.83
2022-09-14T16:50:22.488Z,4.65
2022-09-14T16:53:25.278Z,2.90
2022-09-14T16:56:32.875Z,3.10
2022-09-14T16:59:34.895Z,4.00
2022-09-14T17:02:37.026Z,3.00
2022-09-14T17:05:39.066Z,2.45
2022-09-14T17:08:43.977Z,2.40
2022-09-14T17:11:46.229Z,3.90
2022-09-14T17:14:48.255Z,2.45
2022-09-14T17:17:50.315Z,2.58
2022-09-14T17:20:57.551Z,3.25
2022-09-14T17:24:00.103Z,2.13
2022-09-14T17:27:03.665Z,3.17
2022-09-14T17:30:06.376Z,2.83
2022-09-14T17:33:08.736Z,2.40
2022-09-14T17:36:11.229Z,3.63
2022-09-14T17:39:15.521Z,3.13
2022-09-14T17:42:17.761Z,2.80
2022-09-14T17:45:19.747Z,2.40
2022-09-14T17:48:23.253Z,2.13
2022-09-14T17:51:27.870Z,2.53
2022-09-14T17:54:30.783Z,2.42
2022-09-14T17:57:32.810Z,2.30
2022-09-14T18:00:35.222Z,2.03
2022-09-14T18:03:38.736Z,2.28
2022-09-14T18:06:43.967Z,2.03
2022-09-14T18:09:46.121Z,2.55
2022-09-14T18:12:48.719Z,2.38
2022-09-14T18:15:56.661Z,2.67
2022-09-14T18:18:59.116Z,1.95
2022-09-14T18:22:01.262Z,2.80
2022-09-14T18:25:05.171Z,3.08
2022-09-14T18:28:07.325Z,2.88
2022-09-14T18:31:11.063Z,2.92
2022-09-14T18:34:13.706Z,2.95
2022-09-14T18:37:15.677Z,2.17
2022-09-14T18:40:20.277Z,1.80
2022-09-14T18:43:22.785Z,2.50
2022-09-14T18:46:28.084Z,2.97
2022-09-14T18:49:30.557Z,1.90
2022-09-14T18:52:32.640Z,1.83
2022-09-14T18:55:35.650Z,1.75
2022-09-14T18:58:39.989Z,1.88
2022-09-14T19:01:43.025Z,1.42
2022-09-14T19:04:45.313Z,1.77
2022-09-14T19:07:47.375Z,1.90
2022-09-14T19:10:49.586Z,1.77
2022-09-14T19:14:01.652Z,1.95
2022-09-14T19:17:03.830Z,1.80
2022-09-14T19:20:08.019Z,1.73
2022-09-14T19:23:10.117Z,1.70
2022-09-14T19:26:15.635Z,2.22
2022-09-14T19:29:20.757Z,2.00
2022-09-14T19:32:22.797Z,1.50
2022-09-14T19:35:24.875Z,1.55
2022-09-14T19:38:29.297Z,2.65
2022-09-14T19:41:32.968Z,1.90
2022-09-14T19:44:35.057Z,1.95
2022-09-14T19:47:37.175Z,1.67
2022-09-14T19:50:39.256Z,2.22
2022-09-14T19:53:42.484Z,1.95
2022-09-14T19:56:46.215Z,2.58
2022-09-14T19:59:48.233Z,1.85
2022-09-14T20:02:50.258Z,1.50
2022-09-14T20:06:01.165Z,1.80
2022-09-14T20:09:07.013Z,1.77
2022-09-14T20:12:08.965Z,2.05
2022-09-14T20:15:11.216Z,1.40
2022-09-14T20:18:13.320Z,2.63
2022-09-14T20:21:17.961Z,2.35
2022-09-14T20:24:26.005Z,1.58
2022-09-14T20:27:28.004Z,1.50
2022-09-14T20:30:30.095Z,1.92
2022-09-14T20:33:32.969Z,1.35
2022-09-14T20:36:35.142Z,1.90
2022-09-14T20:39:38.453Z,2.00
2022-09-14T20:42:40.643Z,2.03
2022-09-14T20:45:42.763Z,1.30
2022-09-14T20:48:45.020Z,2.03
2022-09-14T20:51:47.390Z,2.00
2022-09-14T20:54:49.595Z,1.75
2022-09-14T20:57:52.773Z,1.73
2022-09-14T21:01:10.455Z,1.40
2022-09-14T21:04:16.101Z,1.70
2022-09-14T21:07:18.120Z,1.50
2022-09-14T21:10:20.330Z,1.88
2022-09-14T21:13:22.789Z,2.55
2022-09-14T21:16:34.616Z,2.15
2022-09-14T21:19:36.773Z,1.45
2022-09-14T21:22:38.897Z,2.33
2022-09-14T21:25:40.981Z,2.22
2022-09-14T21:28:43.283Z,2.05
2022-09-14T21:31:45.423Z,2.30
2022-09-14T21:34:48.210Z,2.38
2022-09-14T21:37:51.531Z,2.45
2022-09-14T21:40:53.614Z,2.08
2022-09-14T21:43:57.419Z,1.98
2022-09-14T21:47:00.453Z,1.70
2022-09-14T21:50:02.887Z,1.38
2022-09-14T21:53:05.055Z,1.80
2022-09-14T21:56:07.321Z,2.00
2022-09-14T21:59:18.473Z,2.03
2022-09-14T22:02:21.867Z,1.83
2022-09-14T22:05:24.125Z,1.83
2022-09-14T22:08:28.257Z,2.15
2022-09-14T22:11:39.798Z,1.70
2022-09-14T22:14:42.262Z,1.75
2022-09-14T22:17:44.278Z,1.73
2022-09-14T22:20:55.323Z,1.23
2022-09-14T22:24:02.384Z,1.50
2022-09-14T22:27:06.571Z,1.10
2022-09-14T22:30:09.534Z,1.58
2022-09-14T22:33:12.369Z,1.70
2022-09-14T22:36:17.472Z,2.63
2022-09-14T22:42:57.773Z,1.77
2022-09-14T22:46:00.383Z,1.80
2022-09-14T22:49:02.698Z,1.50
2022-09-14T22:52:04.918Z,1.48
2022-09-14T22:55:07.650Z,1.65
2022-09-14T22:58:10.677Z,1.73
2022-09-14T23:01:28.221Z,1.85
2022-09-14T23:04:31.292Z,1.75
2022-09-14T23:07:33.239Z,1.35
2022-09-14T23:10:38.351Z,1.77
2022-09-14T23:13:42.632Z,1.58
2022-09-14T23:16:45.690Z,1.83
2022-09-14T23:19:47.779Z,1.65
2022-09-14T23:22:49.796Z,1.48
2022-09-14T23:25:51.771Z,1.30
2022-09-14T23:28:56.622Z,1.90
2022-09-14T23:31:58.775Z,1.98
2022-09-14T23:35:01.329Z,1.50
2022-09-14T23:38:03.436Z,2.08
2022-09-14T23:41:05.668Z,2.00
2022-09-14T23:44:09.472Z,2.13
2022-09-14T23:47:11.443Z,2.08
2022-09-14T23:50:13.385Z,3.00
2022-09-14T23:53:15.425Z,1.98
2022-09-14T23:56:17.609Z,2.10
2022-09-14T23:59:19.697Z,2.30
